createdAt,value
2018-11-28T00:00:32.254Z,76.50
2018-11-28T00:03:04.006Z,76.90
2018-11-28T00:05:34.024Z,77.20
2018-11-28T00:08:09.565Z,77.50
2018-11-28T00:10:39.180Z,77.80
2018-11-28T00:13:08.714Z,78.30
2018-11-28T00:15:38.502Z,78.30
2018-11-28T00:18:08.525Z,78.60
2018-11-28T00:20:38.450Z,78.70
2018-11-28T00:25:35.341Z,78.80
2018-11-28T00:30:35.952Z,78.60
2018-11-28T00:35:34.064Z,78.40
2018-11-28T00:38:03.945Z,78.40
2018-11-28T00:40:33.657Z,78.60
2018-11-28T00:43:03.491Z,78.80
2018-11-28T00:45:33.148Z,78.90
2018-11-28T00:48:02.933Z,79.10
2018-11-28T00:50:33.300Z,79.00
2018-11-28T00:53:02.933Z,79.20
2018-11-28T00:58:00.601Z,79.30
2018-11-28T01:00:30.675Z,79.60
2018-11-28T01:05:29.038Z,80.00
2018-11-28T01:07:58.663Z,80.30
2018-11-28T01:10:28.318Z,80.40
2018-11-28T01:12:57.986Z,80.70
2018-11-28T01:15:27.953Z,80.80
2018-11-28T01:17:57.567Z,80.90
2018-11-28T01:20:27.665Z,82.00
2018-11-28T01:22:57.218Z,81.10
2018-11-28T01:25:26.794Z,81.10
2018-11-28T01:30:24.779Z,81.00
2018-11-28T01:32:54.401Z,80.80
2018-11-28T01:35:24.252Z,80.90
2018-11-28T01:37:53.925Z,81.00
2018-11-28T01:40:24.348Z,80.80
2018-11-28T01:45:24.553Z,81.10
2018-11-28T01:47:54.080Z,81.10
2018-11-28T01:50:23.796Z,81.30
2018-11-28T01:52:53.642Z,81.50
2018-11-28T01:55:23.388Z,81.40
2018-11-28T02:00:21.939Z,81.80
2018-11-28T02:02:56.509Z,81.50
2018-11-28T02:05:26.261Z,81.50
2018-11-28T02:10:24.866Z,81.70
2018-11-28T02:15:26.312Z,81.60
2018-11-28T02:17:56.677Z,82.20
2018-11-28T02:20:26.191Z,81.50
2018-11-28T02:22:56.113Z,81.60
2018-11-28T02:25:25.853Z,81.40
2018-11-28T02:27:55.613Z,81.20
2018-11-28T02:30:25.132Z,81.30
2018-11-28T02:32:55.212Z,81.30
2018-11-28T02:35:24.955Z,81.30
2018-11-28T02:40:24.463Z,81.20
2018-11-28T02:45:22.130Z,80.70
2018-11-28T02:47:52.439Z,80.80
2018-11-28T02:50:21.944Z,81.00
2018-11-28T02:52:51.692Z,81.10
2018-11-28T02:55:21.417Z,81.10
2018-11-28T03:00:21.227Z,80.80
2018-11-28T03:02:50.730Z,80.40
2018-11-28T03:07:47.707Z,80.50
2018-11-28T03:12:46.309Z,80.30
2018-11-28T03:15:18.971Z,80.30
2018-11-28T03:20:20.051Z,80.40
2018-11-28T03:22:49.633Z,80.50
2018-11-28T03:25:19.459Z,80.70
2018-11-28T03:27:49.214Z,80.80
2018-11-28T03:30:18.907Z,80.80
2018-11-28T03:32:48.432Z,80.80
2018-11-28T03:35:18.086Z,80.90
2018-11-28T03:37:47.701Z,80.80
2018-11-28T03:40:17.472Z,81.60
2018-11-28T03:45:17.973Z,80.90
2018-11-28T03:47:48.002Z,80.70
2018-11-28T03:50:17.741Z,80.80
2018-11-28T03:52:47.600Z,80.80
2018-11-28T03:55:17.504Z,80.80
2018-11-28T03:57:47.822Z,80.80
2018-11-28T04:00:20.397Z,80.80
2018-11-28T04:02:51.147Z,80.80
2018-11-28T04:05:21.207Z,80.80
2018-11-28T04:07:50.897Z,80.80
2018-11-28T04:10:20.790Z,80.80
2018-11-28T04:12:50.300Z,80.70
2018-11-28T04:15:21.444Z,80.70
2018-11-28T04:17:51.450Z,80.50
2018-11-28T04:20:21.953Z,80.50
2018-11-28T04:25:22.314Z,80.70
2018-11-28T04:27:52.342Z,80.40
2018-11-28T04:32:53.813Z,80.40
2018-11-28T04:35:23.477Z,80.30
2018-11-28T04:37:53.017Z,80.40
2018-11-28T04:40:23.040Z,80.50
2018-11-28T04:42:52.756Z,80.60
2018-11-28T04:45:24.430Z,80.40
2018-11-28T04:47:54.961Z,80.40
2018-11-28T04:50:24.872Z,80.60
2018-11-28T04:52:54.674Z,80.60
2018-11-28T04:57:54.180Z,81.30
2018-11-28T05:00:26.618Z,80.60
2018-11-28T05:02:57.363Z,80.70
2018-11-28T05:05:27.017Z,80.90
2018-11-28T05:07:56.646Z,81.10
2018-11-28T05:10:29.156Z,81.20
2018-11-28T05:12:59.430Z,81.20
2018-11-28T05:15:30.926Z,81.10
2018-11-28T05:18:00.542Z,81.20
2018-11-28T05:20:34.147Z,81.40
2018-11-28T05:25:34.848Z,81.40
2018-11-28T05:28:04.579Z,81.60
2018-11-28T05:33:03.176Z,81.80
2018-11-28T05:35:34.775Z,81.70
2018-11-28T05:38:08.007Z,81.90
2018-11-28T05:40:38.014Z,82.00
2018-11-28T05:43:07.820Z,82.10
2018-11-28T05:45:37.510Z,82.00
2018-11-28T05:50:35.725Z,82.00
2018-11-28T05:53:05.367Z,82.30
2018-11-28T05:55:35.334Z,81.50
2018-11-28T05:58:05.926Z,81.50
2018-11-28T06:00:40.465Z,81.60
2018-11-28T06:03:11.559Z,81.40
2018-11-28T06:05:41.854Z,81.10
2018-11-28T06:08:11.509Z,81.70
2018-11-28T06:10:41.281Z,80.90
2018-11-28T06:13:11.043Z,80.80
2018-11-28T06:15:40.536Z,80.70
2018-11-28T06:18:10.325Z,80.50
2018-11-28T06:20:40.093Z,80.60
2018-11-28T06:23:10.066Z,80.30
2018-11-28T06:25:39.592Z,80.20
2018-11-28T06:28:09.381Z,80.30
2018-11-28T06:30:39.116Z,80.10
2018-11-28T06:33:08.724Z,80.10
2018-11-28T06:35:39.028Z,80.00
2018-11-28T06:38:08.833Z,79.80
2018-11-28T06:40:38.573Z,79.50
2018-11-28T06:43:08.278Z,79.20
2018-11-28T06:45:37.902Z,78.80
2018-11-28T06:48:07.696Z,78.60
2018-11-28T06:50:37.415Z,78.30
2018-11-28T06:53:07.089Z,78.20
2018-11-28T06:55:36.610Z,78.00
2018-11-28T06:58:06.439Z,77.60
2018-11-28T07:03:03.290Z,77.40
2018-11-28T07:08:01.090Z,75.80
2018-11-28T07:10:30.769Z,74.20
2018-11-28T07:13:00.605Z,73.40
2018-11-28T07:15:30.613Z,72.40
2018-11-28T07:19:10.582Z,71.00
2018-11-28T07:21:40.382Z,69.20
2018-11-28T07:24:10.053Z,65.90
2018-11-28T07:26:39.850Z,63.70
2018-11-28T07:29:09.422Z,59.70
2018-11-28T07:31:39.132Z,55.70
2018-11-28T07:34:11.922Z,52.80
2018-11-28T07:36:41.499Z,50.10
2018-11-28T07:39:11.532Z,47.10
2018-11-28T07:41:41.124Z,45.50
2018-11-28T07:44:10.953Z,44.40
2018-11-28T07:46:40.663Z,43.60
2018-11-28T07:49:10.550Z,41.80
2018-11-28T07:51:40.406Z,41.70
2018-11-28T07:54:10.223Z,39.50
2018-11-28T07:56:40.017Z,37.40
2018-11-28T07:59:09.687Z,34.90
2018-11-28T08:01:39.367Z,33.10
2018-11-28T08:04:09.561Z,31.80
2018-11-28T08:06:39.573Z,31.50
2018-11-28T08:09:09.177Z,31.40
2018-11-28T08:11:39.086Z,31.80
2018-11-28T08:14:09.125Z,32.20
2018-11-28T08:16:38.893Z,32.80
2018-11-28T08:19:14.690Z,31.90
2018-11-28T08:21:44.014Z,30.90
2018-11-28T08:24:14.065Z,29.80
2018-11-28T08:26:43.590Z,29.50
2018-11-28T08:29:12.944Z,28.50
2018-11-28T08:31:42.828Z,26.90
2018-11-28T08:34:12.512Z,25.80
2018-11-28T08:36:42.155Z,24.60
2018-11-28T08:39:11.835Z,24.20
2018-11-28T08:41:41.663Z,23.90
2018-11-28T08:44:11.284Z,24.60
2018-11-28T08:46:40.850Z,24.50
2018-11-28T08:49:10.660Z,23.90
2018-11-28T08:51:40.360Z,23.00
2018-11-28T08:54:09.988Z,22.10
2018-11-28T08:56:39.814Z,20.20
2018-11-28T08:59:09.767Z,20.20
2018-11-28T09:01:39.395Z,19.40
2018-11-28T09:04:09.130Z,18.50
2018-11-28T09:06:38.649Z,17.30
2018-11-28T09:09:09.025Z,16.50
2018-11-28T09:11:38.922Z,16.00
2018-11-28T09:14:09.246Z,15.20
2018-11-28T09:16:38.843Z,15.20
2018-11-28T09:19:08.523Z,15.30
2018-11-28T09:21:38.377Z,15.00
2018-11-28T09:24:07.660Z,14.80
2018-11-28T09:26:36.951Z,14.80
2018-11-28T09:29:06.352Z,14.60
2018-11-28T09:31:35.713Z,13.70
2018-11-28T09:34:05.045Z,13.60
2018-11-28T09:36:34.339Z,13.30
2018-11-28T09:39:05.098Z,14.10
2018-11-28T09:41:34.425Z,13.80
2018-11-28T09:44:03.732Z,13.40
2018-11-28T09:46:33.073Z,12.90
2018-11-28T09:49:02.405Z,12.60
2018-11-28T09:51:31.683Z,12.10
2018-11-28T09:54:04.551Z,11.60
2018-11-28T09:56:34.140Z,12.10
2018-11-28T09:59:03.495Z,12.10
2018-11-28T10:01:32.930Z,12.00
2018-11-28T10:04:02.285Z,11.70
2018-11-28T10:06:31.590Z,11.40
2018-11-28T10:09:00.891Z,11.30
2018-11-28T10:11:30.264Z,12.20
2018-11-28T10:13:59.612Z,13.60
2018-11-28T10:16:28.920Z,14.70
2018-11-28T10:18:58.208Z,14.70
2018-11-28T10:21:27.579Z,13.70
2018-11-28T10:23:56.941Z,12.70
2018-11-28T10:26:26.350Z,12.20
2018-11-28T10:28:55.648Z,11.60
2018-11-28T10:31:25.022Z,12.60
2018-11-28T10:33:54.315Z,11.50
2018-11-28T10:36:23.763Z,11.30
2018-11-28T10:38:53.517Z,11.00
2018-11-28T10:41:23.216Z,10.70
2018-11-28T10:43:52.998Z,11.10
2018-11-28T10:46:23.250Z,11.10
2018-11-28T10:48:52.904Z,10.80
2018-11-28T10:51:23.135Z,11.20
2018-11-28T10:54:04.617Z,10.70
2018-11-28T10:56:34.810Z,11.10
2018-11-28T10:59:04.181Z,10.90
2018-11-28T11:01:37.692Z,10.90
2018-11-28T11:04:12.390Z,10.80
2018-11-28T11:06:47.170Z,10.90
2018-11-28T11:09:21.947Z,11.20
2018-11-28T11:11:56.663Z,11.10
2018-11-28T11:14:31.640Z,11.10
2018-11-28T11:17:01.513Z,11.20
2018-11-28T11:19:31.111Z,11.70
2018-11-28T11:22:01.046Z,11.80
2018-11-28T11:24:31.092Z,11.90
2018-11-28T11:27:00.756Z,12.00
2018-11-28T11:29:30.219Z,12.00
2018-11-28T11:32:00.074Z,11.90
2018-11-28T11:34:29.826Z,11.90
2018-11-28T11:36:59.204Z,12.20
2018-11-28T11:39:28.573Z,12.30
2018-11-28T11:41:57.851Z,12.20
2018-11-28T11:44:27.279Z,12.90
2018-11-28T11:46:56.671Z,13.50
2018-11-28T11:49:26.516Z,14.40
2018-11-28T11:51:56.221Z,13.60
2018-11-28T11:54:25.773Z,14.20
2018-11-28T11:56:55.572Z,13.30
2018-11-28T11:59:25.538Z,12.90
2018-11-28T12:01:55.297Z,12.70
2018-11-28T12:04:25.072Z,12.40
2018-11-28T12:06:54.777Z,12.40
2018-11-28T12:09:24.577Z,12.80
2018-11-28T12:11:54.675Z,12.70
2018-11-28T12:14:24.579Z,13.00
2018-11-28T12:16:54.712Z,13.10
2018-11-28T12:19:25.321Z,13.50
2018-11-28T12:21:55.175Z,13.60
2018-11-28T12:24:25.268Z,13.70
2018-11-28T12:26:54.828Z,13.70
2018-11-28T12:29:24.283Z,14.30
2018-11-28T12:32:07.291Z,14.50
2018-11-28T12:34:37.450Z,15.40
2018-11-28T12:37:18.262Z,17.00
2018-11-28T12:39:51.153Z,18.00
2018-11-28T12:42:21.405Z,17.70
2018-11-28T12:44:51.187Z,18.30
2018-11-28T12:47:20.949Z,18.00
2018-11-28T12:49:50.819Z,18.10
2018-11-28T12:52:20.836Z,18.60
2018-11-28T12:54:50.907Z,19.10
2018-11-28T12:57:21.044Z,18.90
2018-11-28T12:59:50.627Z,20.70
2018-11-28T13:02:20.339Z,22.20
2018-11-28T13:04:49.974Z,21.90
2018-11-28T13:07:19.819Z,22.00
2018-11-28T13:09:49.541Z,22.90
2018-11-28T13:12:19.527Z,24.40
2018-11-28T13:14:49.354Z,24.30
2018-11-28T13:17:19.474Z,25.80
2018-11-28T13:19:49.056Z,27.00
2018-11-28T13:22:18.608Z,28.00
2018-11-28T13:24:48.170Z,29.30
2018-11-28T13:27:17.781Z,30.30
2018-11-28T13:29:47.411Z,31.20
2018-11-28T13:32:17.240Z,32.10
2018-11-28T13:34:47.349Z,33.00
2018-11-28T13:37:18.859Z,33.70
2018-11-28T13:57:50.796Z,37.70
2018-11-28T14:00:20.896Z,38.10
2018-11-28T14:02:50.721Z,38.10
2018-11-28T14:05:20.306Z,38.20
2018-11-28T14:07:50.101Z,38.70
2018-11-28T14:10:19.952Z,39.20
2018-11-28T14:12:49.682Z,39.60
2018-11-28T14:15:22.732Z,40.10
2018-11-28T14:17:55.601Z,40.00
2018-11-28T14:20:27.612Z,40.10
2018-11-28T14:22:57.320Z,40.90
2018-11-28T14:25:27.190Z,41.00
2018-11-28T14:27:57.302Z,41.60
2018-11-28T14:30:27.179Z,41.60
2018-11-28T14:33:01.584Z,41.70
2018-11-28T14:35:36.964Z,43.00
2018-11-28T14:38:07.412Z,43.10
2018-11-28T14:40:37.130Z,43.70
2018-11-28T14:43:08.098Z,44.10
2018-11-28T14:45:37.987Z,44.30
2018-11-28T14:48:07.700Z,44.50
2018-11-28T14:50:37.533Z,44.90
2018-11-28T14:53:07.256Z,45.20
2018-11-28T14:55:39.675Z,45.60
2018-11-28T14:58:11.556Z,45.80
2018-11-28T15:00:41.625Z,45.70
2018-11-28T15:03:16.321Z,46.00
2018-11-28T15:06:09.608Z,46.60
2018-11-28T15:08:39.824Z,47.30
2018-11-28T15:11:12.056Z,47.90
2018-11-28T15:13:45.218Z,48.30
2018-11-28T15:16:16.943Z,48.60
2018-11-28T15:18:46.602Z,49.20
2018-11-28T15:21:16.438Z,50.00
2018-11-28T15:23:46.071Z,50.10
2018-11-28T15:26:15.892Z,50.60
2018-11-28T15:28:45.213Z,51.00
2018-11-28T15:31:16.448Z,51.00
2018-11-28T15:33:48.094Z,51.20
2018-11-28T15:36:20.087Z,51.50
2018-11-28T15:38:49.869Z,51.60
2018-11-28T15:41:20.845Z,52.00
2018-11-28T15:43:57.366Z,52.40
2018-11-28T15:46:27.364Z,52.70
2018-11-28T15:48:58.445Z,53.00
2018-11-28T15:51:29.741Z,53.30
2018-11-28T15:53:59.797Z,53.40
2018-11-28T15:56:30.101Z,53.60
2018-11-28T15:59:03.771Z,53.80
2018-11-28T16:01:33.781Z,54.10
2018-11-28T16:04:06.581Z,54.40
2018-11-28T16:06:36.315Z,54.60
2018-11-28T16:27:30.886Z,56.00
2018-11-28T16:30:01.169Z,56.20
2018-11-28T16:32:30.968Z,56.30
2018-11-28T16:35:00.590Z,56.90
2018-11-28T16:37:30.234Z,57.00
2018-11-28T16:39:59.980Z,57.30
2018-11-28T16:42:29.636Z,57.80
2018-11-28T16:44:59.420Z,58.20
2018-11-28T16:47:28.964Z,58.80
2018-11-28T16:49:58.846Z,59.00
2018-11-28T16:52:28.484Z,59.50
2018-11-28T16:54:58.329Z,59.80
2018-11-28T16:57:27.793Z,60.00
2018-11-28T16:59:57.631Z,60.00
2018-11-28T17:02:27.500Z,59.90
2018-11-28T17:04:57.127Z,60.30
2018-11-28T17:07:27.123Z,60.50
2018-11-28T17:09:57.028Z,60.60
2018-11-28T17:12:26.430Z,60.90
2018-11-28T17:14:56.044Z,61.10
2018-11-28T17:17:25.817Z,61.40
2018-11-28T17:19:55.555Z,61.70
2018-11-28T17:22:25.520Z,62.00
2018-11-28T17:24:55.397Z,62.80
2018-11-28T17:27:24.975Z,62.70
2018-11-28T17:29:54.684Z,63.40
2018-11-28T17:32:24.326Z,63.50
2018-11-28T17:34:54.089Z,63.70
2018-11-28T17:37:23.804Z,64.10
2018-11-28T17:39:53.436Z,64.10
2018-11-28T17:42:22.987Z,64.30
2018-11-28T17:44:52.795Z,64.50
2018-11-28T17:47:22.510Z,64.50
2018-11-28T17:49:52.004Z,64.50
2018-11-28T17:52:21.834Z,64.60
2018-11-28T17:54:51.613Z,64.50
2018-11-28T17:57:21.351Z,64.70
2018-11-28T17:59:51.191Z,64.90
2018-11-28T18:02:20.737Z,65.00
2018-11-28T18:04:50.468Z,64.80
2018-11-28T18:07:20.178Z,64.90
2018-11-28T18:09:49.872Z,64.80
2018-11-28T18:12:19.534Z,64.90
2018-11-28T18:14:49.089Z,65.30
2018-11-28T18:17:18.826Z,65.50
2018-11-28T18:19:48.596Z,65.60
2018-11-28T18:22:18.133Z,65.30
2018-11-28T18:24:47.913Z,65.50
2018-11-28T18:27:17.666Z,65.80
2018-11-28T18:29:48.412Z,66.00
2018-11-28T18:32:18.199Z,66.40
2018-11-28T18:34:48.024Z,66.50
2018-11-28T18:37:17.501Z,66.30
2018-11-28T18:39:47.271Z,66.50
2018-11-28T18:42:17.854Z,67.00
2018-11-28T18:44:47.388Z,67.00
2018-11-28T18:47:17.175Z,67.00
2018-11-28T18:49:47.025Z,67.20
2018-11-28T18:52:16.950Z,67.00
2018-11-28T18:54:46.797Z,67.50
2018-11-28T18:57:16.644Z,67.80
2018-11-28T18:59:46.336Z,68.00
2018-11-28T19:04:46.562Z,67.90
2018-11-28T19:09:49.823Z,67.60
2018-11-28T19:12:19.722Z,67.90
2018-11-28T19:14:49.755Z,68.10
2018-11-28T19:17:19.787Z,68.30
2018-11-28T19:19:49.508Z,68.30
2018-11-28T19:22:19.784Z,68.60
2018-11-28T19:24:49.417Z,68.70
2018-11-28T19:29:49.442Z,68.90
2018-11-28T19:32:19.383Z,68.80
2018-11-28T19:34:49.025Z,68.80
2018-11-28T19:37:18.718Z,68.70
2018-11-28T19:39:48.406Z,68.60
2018-11-28T19:44:48.816Z,68.80
2018-11-28T19:47:18.346Z,69.00
2018-11-28T19:52:15.245Z,69.00
2018-11-28T19:57:12.857Z,69.10
2018-11-28T19:59:42.162Z,69.50
2018-11-28T20:02:11.643Z,70.00
2018-11-28T20:04:41.042Z,70.00
2018-11-28T20:07:10.702Z,70.20
2018-11-28T20:09:40.501Z,70.40
2018-11-28T20:12:10.223Z,70.40
2018-11-28T20:14:39.777Z,70.50
2018-11-28T20:17:09.517Z,70.80
2018-11-28T20:19:39.262Z,70.80
2018-11-28T20:22:09.103Z,70.60
2018-11-28T20:24:45.506Z,70.70
2018-11-28T20:27:15.338Z,70.80
2018-11-28T20:29:45.039Z,70.90
2018-11-28T20:32:14.595Z,71.00
2018-11-28T20:34:44.352Z,71.00
2018-11-28T20:37:14.377Z,71.00
2018-11-28T20:39:44.320Z,71.20
2018-11-28T20:42:14.174Z,71.30
2018-11-28T20:44:43.839Z,71.50
2018-11-28T20:47:13.409Z,71.60
2018-11-28T20:49:43.559Z,71.90
2018-11-28T20:52:13.326Z,72.00
2018-11-28T20:54:43.258Z,72.10
2018-11-28T20:57:17.339Z,72.10
2018-11-28T20:59:42.904Z,72.60
2018-11-28T21:02:12.832Z,72.10
2018-11-28T21:04:42.512Z,72.20
2018-11-28T21:07:12.100Z,72.20
2018-11-28T21:09:47.057Z,72.60
2018-11-28T21:12:16.855Z,72.40
2018-11-28T21:14:46.799Z,72.50
2018-11-28T21:17:17.455Z,72.40
2018-11-28T21:19:46.769Z,72.30
2018-11-28T21:22:16.467Z,72.40
2018-11-28T21:24:46.239Z,72.40
2018-11-28T21:27:15.954Z,72.40
2018-11-28T21:29:45.921Z,72.80
2018-11-28T21:32:15.730Z,72.70
2018-11-28T21:34:45.594Z,72.50
2018-11-28T21:37:15.560Z,72.40
2018-11-28T21:39:54.931Z,72.50
2018-11-28T21:42:33.021Z,72.20
2018-11-28T21:45:05.459Z,72.20
2018-11-28T21:47:35.280Z,72.20
2018-11-28T21:50:05.342Z,72.20
2018-11-28T21:52:34.968Z,72.30
2018-11-28T21:55:04.819Z,72.40
2018-11-28T21:57:34.483Z,72.40
2018-11-28T22:00:05.176Z,72.40
2018-11-28T22:02:34.756Z,72.50
2018-11-28T22:05:04.272Z,72.60
2018-11-28T22:07:34.288Z,72.50
2018-11-28T22:10:04.441Z,72.60
2018-11-28T22:12:34.080Z,72.70
2018-11-28T22:15:03.600Z,72.60
2018-11-28T22:17:34.138Z,72.70
2018-11-28T22:20:03.145Z,72.80
2018-11-28T22:22:32.980Z,73.00
2018-11-28T22:25:02.618Z,73.10
2018-11-28T22:27:33.090Z,73.20
2018-11-28T22:30:02.604Z,73.30
2018-11-28T22:32:32.623Z,74.10
2018-11-28T22:35:02.248Z,73.60
2018-11-28T22:40:00.065Z,73.90
2018-11-28T22:44:58.734Z,74.10
2018-11-28T22:47:28.713Z,74.30
2018-11-28T22:49:58.412Z,74.60
2018-11-28T22:52:33.827Z,74.90
2018-11-28T22:55:03.603Z,75.00
2018-11-28T22:57:33.245Z,75.20
2018-11-28T23:00:02.806Z,75.30
2018-11-28T23:02:54.348Z,75.40
2018-11-28T23:07:55.059Z,75.40
2018-11-28T23:12:53.556Z,75.80
2018-11-28T23:15:23.469Z,76.00
2018-11-28T23:17:55.260Z,76.50
2018-11-28T23:20:23.302Z,77.20
2018-11-28T23:22:53.022Z,77.90
2018-11-28T23:25:23.061Z,78.60
2018-11-28T23:27:52.887Z,79.10
2018-11-28T23:30:23.036Z,79.80
2018-11-28T23:32:54.232Z,80.40
2018-11-28T23:35:24.461Z,80.80
2018-11-28T23:37:54.072Z,81.10
2018-11-28T23:42:51.698Z,81.50
2018-11-28T23:47:51.271Z,82.20
2018-11-28T23:52:49.019Z,82.70
2018-11-28T23:55:20.551Z,82.90
2018-11-28T23:57:50.235Z,83.10
